createdAt,value
2022-08-21T00:00:11.499Z,1.80
2022-08-21T00:02:20.567Z,1.45
2022-08-21T00:04:30.169Z,1.60
2022-08-21T00:06:37.798Z,1.60
2022-08-21T00:08:45.744Z,1.83
2022-08-21T00:10:54.109Z,1.73
2022-08-21T00:13:01.396Z,1.80
2022-08-21T00:15:09.700Z,1.90
2022-08-21T00:17:19.386Z,2.28
2022-08-21T00:19:26.981Z,2.80
2022-08-21T00:21:36.362Z,2.60
2022-08-21T00:23:43.658Z,2.33
2022-08-21T00:25:51.249Z,2.47
2022-08-21T00:27:58.891Z,2.20
2022-08-21T00:30:07.494Z,2.20
2022-08-21T00:32:14.931Z,2.30
2022-08-21T00:34:22.267Z,2.60
2022-08-21T00:36:29.605Z,2.38
2022-08-21T00:38:38.733Z,2.22
2022-08-21T00:40:48.931Z,2.30
2022-08-21T00:42:56.507Z,2.40
2022-08-21T00:45:03.807Z,2.88
2022-08-21T00:47:11.303Z,2.75
2022-08-21T00:49:18.277Z,2.60
2022-08-21T00:51:29.862Z,2.25
2022-08-21T00:53:41.954Z,2.40
2022-08-21T00:55:50.777Z,2.40
2022-08-21T00:58:01.292Z,2.47
2022-08-21T01:00:14.664Z,2.58
2022-08-21T01:02:22.770Z,2.47
2022-08-21T01:04:30.732Z,2.88
2022-08-21T01:06:37.857Z,3.63
2022-08-21T01:08:47.251Z,3.42
2022-08-21T01:10:55.998Z,3.30
2022-08-21T01:13:05.639Z,3.70
2022-08-21T01:15:13.905Z,3.33
2022-08-21T01:17:23.544Z,3.65
2022-08-21T01:19:31.230Z,4.25
2022-08-21T01:21:40.101Z,3.67
2022-08-21T01:23:51.382Z,3.47
2022-08-21T01:25:58.351Z,3.50
2022-08-21T01:28:11.124Z,3.78
2022-08-21T01:30:21.014Z,3.63
2022-08-21T01:32:28.251Z,4.00
2022-08-21T01:34:36.703Z,3.65
2022-08-21T01:36:45.932Z,4.75
2022-08-21T01:38:53.278Z,4.13
2022-08-21T01:41:00.501Z,4.03
2022-08-21T01:43:07.989Z,7.13
2022-08-21T01:45:16.455Z,5.63
2022-08-21T01:47:23.787Z,4.45
2022-08-21T01:49:30.833Z,4.07
2022-08-21T01:51:38.212Z,4.10
2022-08-21T01:53:46.932Z,4.63
2022-08-21T01:55:54.441Z,4.65
2022-08-21T01:58:03.381Z,4.60
2022-08-21T02:00:14.148Z,4.50
2022-08-21T02:02:21.430Z,4.60
2022-08-21T02:04:29.026Z,4.30
2022-08-21T02:06:36.100Z,4.80
2022-08-21T02:08:44.060Z,4.63
2022-08-21T02:10:52.824Z,4.90
2022-08-21T02:13:01.903Z,4.78
2022-08-21T02:15:10.720Z,4.70
2022-08-21T02:17:17.950Z,4.85
2022-08-21T02:19:25.240Z,4.78
2022-08-21T02:21:32.217Z,4.80
2022-08-21T02:23:39.649Z,4.90
2022-08-21T02:25:47.909Z,4.40
2022-08-21T02:27:57.135Z,4.38
2022-08-21T02:30:04.217Z,5.00
2022-08-21T02:32:14.434Z,4.32
2022-08-21T02:34:23.295Z,4.60
2022-08-21T02:36:36.769Z,4.40
2022-08-21T02:38:46.410Z,4.53
2022-08-21T02:40:54.830Z,4.07
2022-08-21T02:43:04.980Z,4.95
2022-08-21T02:45:13.385Z,4.18
2022-08-21T02:47:20.567Z,5.28
2022-08-21T02:49:28.207Z,4.43
2022-08-21T02:51:35.383Z,4.22
2022-08-21T02:53:43.438Z,4.75
2022-08-21T02:55:52.204Z,4.60
2022-08-21T02:58:00.511Z,4.47
2022-08-21T03:00:11.790Z,4.38
2022-08-21T03:04:25.588Z,4.35
2022-08-21T03:06:32.719Z,4.57
2022-08-21T03:08:40.312Z,4.72
2022-08-21T03:10:50.420Z,4.82
2022-08-21T03:12:58.385Z,4.50
2022-08-21T03:15:05.759Z,4.60
2022-08-21T03:17:15.028Z,4.30
2022-08-21T03:19:22.823Z,5.15
2022-08-21T03:21:29.911Z,5.20
2022-08-21T03:23:36.936Z,5.10
2022-08-21T03:25:44.933Z,5.15
2022-08-21T03:27:57.012Z,5.03
2022-08-21T03:30:07.499Z,5.30
2022-08-21T03:32:16.473Z,5.20
2022-08-21T03:34:23.748Z,5.57
2022-08-21T03:36:31.142Z,5.38
2022-08-21T03:38:39.235Z,5.55
2022-08-21T03:40:46.735Z,5.10
2022-08-21T03:42:54.130Z,5.60
2022-08-21T03:45:00.992Z,5.22
2022-08-21T03:47:09.193Z,5.25
2022-08-21T03:49:18.217Z,5.30
2022-08-21T03:51:25.241Z,5.53
2022-08-21T03:53:32.527Z,6.00
2022-08-21T03:55:39.918Z,5.60
2022-08-21T03:57:47.412Z,5.65
2022-08-21T03:59:54.690Z,5.35
2022-08-21T04:02:04.034Z,6.10
2022-08-21T04:04:11.405Z,5.65
2022-08-21T04:06:22.992Z,5.55
2022-08-21T04:08:30.173Z,5.47
2022-08-21T04:10:39.047Z,5.22
2022-08-21T04:12:46.333Z,4.90
2022-08-21T04:14:53.989Z,4.90
2022-08-21T04:17:00.906Z,4.85
2022-08-21T04:19:08.434Z,4.55
2022-08-21T04:21:16.918Z,4.97
2022-08-21T04:23:27.162Z,4.45
2022-08-21T04:25:34.591Z,4.25
2022-08-21T04:27:42.339Z,4.22
2022-08-21T04:29:49.359Z,4.50
2022-08-21T04:31:56.490Z,4.55
2022-08-21T04:34:03.722Z,5.13
2022-08-21T04:36:12.137Z,5.03
2022-08-21T04:38:19.371Z,4.50
2022-08-21T04:40:30.355Z,4.68
2022-08-21T04:42:37.721Z,4.85
2022-08-21T04:44:45.332Z,4.32
2022-08-21T04:46:52.457Z,4.55
2022-08-21T04:48:59.948Z,4.60
2022-08-21T04:51:11.838Z,4.18
2022-08-21T04:53:22.492Z,4.68
2022-08-21T04:55:32.742Z,4.60
2022-08-21T04:57:48.698Z,4.40
2022-08-21T04:59:56.426Z,4.00
2022-08-21T05:02:05.450Z,4.75
2022-08-21T05:04:16.473Z,4.28
2022-08-21T05:06:24.421Z,5.20
2022-08-21T05:08:32.739Z,4.88
2022-08-21T05:10:41.705Z,6.53
2022-08-21T05:12:49.549Z,6.80
2022-08-21T05:14:56.791Z,6.93
2022-08-21T05:17:04.019Z,6.38
2022-08-21T05:19:12.116Z,6.10
2022-08-21T05:21:19.875Z,6.03
2022-08-21T05:23:27.044Z,6.28
2022-08-21T05:25:34.590Z,5.97
2022-08-21T05:27:43.915Z,7.50
2022-08-21T05:29:51.156Z,6.10
2022-08-21T05:31:58.637Z,5.75
2022-08-21T05:34:05.572Z,6.22
2022-08-21T05:36:13.257Z,5.00
2022-08-21T05:38:20.497Z,4.80
2022-08-21T05:40:27.977Z,5.82
2022-08-21T05:42:35.520Z,4.60
2022-08-21T05:44:44.905Z,5.47
2022-08-21T05:46:52.500Z,4.75
2022-08-21T05:48:59.781Z,4.63
2022-08-21T05:51:11.005Z,4.32
2022-08-21T05:53:19.003Z,4.93
2022-08-21T05:55:26.191Z,4.68
2022-08-21T05:57:33.115Z,5.07
2022-08-21T05:59:40.139Z,4.65
2022-08-21T06:01:49.337Z,4.72
2022-08-21T06:03:57.205Z,4.55
2022-08-21T06:06:05.480Z,4.55
2022-08-21T06:08:12.912Z,4.72
2022-08-21T06:10:20.352Z,5.20
2022-08-21T06:12:27.598Z,4.78
2022-08-21T06:14:34.663Z,5.20
2022-08-21T06:16:41.956Z,4.80
2022-08-21T06:18:50.880Z,4.50
2022-08-21T06:20:58.409Z,4.90
2022-08-21T06:23:08.509Z,5.20
2022-08-21T06:25:15.739Z,4.70
2022-08-21T06:27:26.495Z,5.70
2022-08-21T06:29:44.255Z,4.43
2022-08-21T06:31:52.799Z,4.72
2022-08-21T06:34:01.569Z,4.82
2022-08-21T06:36:09.720Z,4.43
2022-08-21T06:38:16.705Z,4.30
2022-08-21T06:40:24.158Z,4.13
2022-08-21T06:42:32.346Z,4.28
2022-08-21T06:44:39.829Z,4.05
2022-08-21T06:46:47.599Z,4.10
2022-08-21T06:48:55.887Z,3.85
2022-08-21T06:51:06.700Z,4.63
2022-08-21T06:53:18.032Z,4.32
2022-08-21T06:55:29.110Z,4.40
2022-08-21T06:57:36.437Z,4.57
2022-08-21T06:59:44.034Z,4.10
2022-08-21T07:01:51.298Z,3.67
2022-08-21T07:03:58.910Z,3.97
2022-08-21T07:06:08.697Z,4.00
2022-08-21T07:08:16.095Z,3.97
2022-08-21T07:10:23.622Z,4.45
2022-08-21T07:12:31.421Z,3.92
2022-08-21T07:14:38.560Z,4.47
2022-08-21T07:16:46.141Z,3.53
2022-08-21T07:18:53.588Z,3.20
2022-08-21T07:21:01.174Z,3.30
2022-08-21T07:23:25.451Z,3.13
2022-08-21T07:25:33.459Z,2.80
2022-08-21T07:27:40.735Z,2.53
2022-08-21T07:29:48.388Z,3.03
2022-08-21T07:31:55.521Z,2.70
2022-08-21T07:34:02.705Z,3.05
2022-08-21T07:36:10.489Z,2.30
2022-08-21T07:38:20.437Z,2.70
2022-08-21T07:40:27.718Z,2.92
2022-08-21T07:42:34.957Z,3.42
2022-08-21T07:44:41.978Z,2.63
2022-08-21T07:46:49.325Z,2.42
2022-08-21T07:48:56.752Z,2.95
2022-08-21T07:51:09.975Z,2.67
2022-08-21T07:53:18.698Z,2.75
2022-08-21T07:55:27.512Z,3.40
2022-08-21T07:57:34.595Z,3.10
2022-08-21T07:59:44.193Z,3.20
2022-08-21T08:01:51.925Z,2.80
2022-08-21T08:03:59.771Z,3.03
2022-08-21T08:06:08.335Z,3.40
2022-08-21T08:08:16.029Z,3.10
2022-08-21T08:10:25.617Z,3.60
2022-08-21T08:12:32.851Z,3.28
2022-08-21T08:14:40.034Z,3.22
2022-08-21T08:16:47.518Z,3.10
2022-08-21T08:18:56.854Z,3.25
2022-08-21T08:21:03.990Z,3.40
2022-08-21T08:23:11.214Z,3.42
2022-08-21T08:25:20.392Z,3.25
2022-08-21T08:27:29.273Z,3.00
2022-08-21T08:29:36.552Z,3.65
2022-08-21T08:31:43.634Z,3.72
2022-08-21T08:33:51.128Z,3.00
2022-08-21T08:36:00.512Z,3.03
2022-08-21T08:38:10.915Z,3.38
2022-08-21T08:40:26.904Z,3.20
2022-08-21T08:42:37.867Z,3.30
2022-08-21T08:44:45.765Z,3.30
2022-08-21T08:46:57.565Z,3.10
2022-08-21T08:49:10.572Z,3.42
2022-08-21T08:51:23.282Z,3.30
2022-08-21T08:53:36.607Z,3.33
2022-08-21T08:55:46.042Z,3.60
2022-08-21T08:57:55.580Z,3.20
2022-08-21T09:00:05.734Z,3.20
2022-08-21T09:02:16.968Z,3.60
2022-08-21T09:04:30.744Z,3.50
2022-08-21T09:06:48.740Z,2.88
2022-08-21T09:09:05.330Z,3.65
2022-08-21T09:11:17.786Z,3.55
2022-08-21T09:13:43.257Z,3.70
2022-08-21T09:16:00.001Z,3.33
2022-08-21T09:18:36.370Z,3.40
2022-08-21T09:20:51.541Z,3.35
2022-08-21T09:23:12.494Z,4.13
2022-08-21T09:25:26.239Z,4.22
2022-08-21T09:27:35.365Z,3.78
2022-08-21T09:29:46.950Z,3.85
2022-08-21T09:31:54.787Z,3.83
2022-08-21T09:34:07.811Z,3.88
2022-08-21T09:36:15.705Z,4.10
2022-08-21T09:38:31.282Z,4.35
2022-08-21T09:40:43.947Z,4.32
2022-08-21T09:42:59.744Z,4.40
2022-08-21T09:45:21.912Z,4.25
2022-08-21T09:47:32.471Z,4.13
2022-08-21T09:49:41.083Z,3.95
2022-08-21T09:51:57.741Z,4.75
2022-08-21T09:54:18.691Z,4.70
2022-08-21T09:56:48.663Z,5.40
2022-08-21T09:58:56.964Z,5.53
2022-08-21T10:01:09.147Z,5.10
2022-08-21T10:03:19.263Z,4.75
2022-08-21T10:05:29.372Z,4.80
2022-08-21T10:07:40.848Z,4.40
2022-08-21T10:09:48.339Z,5.00
2022-08-21T10:12:03.151Z,4.07
2022-08-21T10:14:20.783Z,4.32
2022-08-21T10:16:40.350Z,4.68
2022-08-21T10:18:55.409Z,5.15
2022-08-21T10:21:11.889Z,4.13
2022-08-21T10:23:34.041Z,4.72
2022-08-21T10:25:56.316Z,4.35
2022-08-21T10:28:23.425Z,4.28
2022-08-21T10:30:40.952Z,4.95
2022-08-21T10:33:08.355Z,4.70
2022-08-21T10:35:22.299Z,4.47
2022-08-21T10:37:40.910Z,4.57
2022-08-21T10:39:57.339Z,4.50
2022-08-21T10:42:28.482Z,4.75
2022-08-21T10:44:43.299Z,5.43
2022-08-21T10:46:57.648Z,4.95
2022-08-21T10:49:20.503Z,4.50
2022-08-21T10:51:37.716Z,4.45
2022-08-21T10:54:00.356Z,4.95
2022-08-21T10:56:15.795Z,4.53
2022-08-21T10:58:32.444Z,4.65
2022-08-21T11:00:57.422Z,4.63
2022-08-21T11:03:10.355Z,4.32
2022-08-21T11:05:24.250Z,4.22
2022-08-21T11:07:35.838Z,4.43
2022-08-21T11:09:47.821Z,4.82
2022-08-21T11:12:10.863Z,5.18
2022-08-21T11:14:26.040Z,5.10
2022-08-21T11:16:41.981Z,4.55
2022-08-21T11:18:53.415Z,4.50
2022-08-21T11:21:09.660Z,4.72
2022-08-21T11:23:27.031Z,4.50
2022-08-21T11:25:39.951Z,5.00
2022-08-21T11:27:50.759Z,5.20
2022-08-21T11:30:00.255Z,4.55
2022-08-21T11:32:26.473Z,4.82
2022-08-21T11:34:48.757Z,4.75
2022-08-21T11:37:05.828Z,5.05
2022-08-21T11:39:24.375Z,4.90
2022-08-21T11:41:34.776Z,4.82
2022-08-21T11:43:45.338Z,5.05
2022-08-21T11:45:55.232Z,5.10
2022-08-21T11:48:11.073Z,4.90
2022-08-21T11:50:34.191Z,4.88
2022-08-21T11:52:49.094Z,5.05
2022-08-21T11:55:02.050Z,4.72
2022-08-21T11:57:16.861Z,4.97
2022-08-21T11:59:29.630Z,4.70
2022-08-21T12:01:42.379Z,5.07
2022-08-21T12:03:59.718Z,5.32
2022-08-21T12:06:10.281Z,5.18
2022-08-21T12:08:30.660Z,5.47
2022-08-21T12:10:41.793Z,5.53
2022-08-21T12:12:50.979Z,5.80
2022-08-21T12:15:33.367Z,5.80
2022-08-21T12:17:42.800Z,6.35
2022-08-21T12:20:01.051Z,6.05
2022-08-21T12:22:17.034Z,6.25
2022-08-21T12:24:38.241Z,6.20
2022-08-21T12:26:54.332Z,6.13
2022-08-21T12:29:20.566Z,5.95
2022-08-21T12:31:33.578Z,5.65
2022-08-21T12:33:43.325Z,6.07
2022-08-21T12:35:51.423Z,6.05
2022-08-21T12:38:09.010Z,5.72
2022-08-21T12:40:26.432Z,5.47
2022-08-21T12:42:41.332Z,5.90
2022-08-21T12:44:52.710Z,5.57
2022-08-21T12:47:04.004Z,5.80
2022-08-21T12:49:18.184Z,5.93
2022-08-21T12:51:30.434Z,5.70
2022-08-21T12:53:45.766Z,6.00
2022-08-21T12:55:54.578Z,6.55
2022-08-21T12:58:02.429Z,6.20
2022-08-21T13:00:13.811Z,6.63
2022-08-21T13:02:26.009Z,6.65
2022-08-21T13:04:41.074Z,6.30
2022-08-21T13:06:49.998Z,6.47
2022-08-21T13:09:01.685Z,6.75
2022-08-21T13:11:15.261Z,7.40
2022-08-21T13:13:28.469Z,7.40
2022-08-21T13:15:38.281Z,6.85
2022-08-21T13:17:51.197Z,6.80
2022-08-21T13:19:59.726Z,7.00
2022-08-21T13:22:33.054Z,7.68
2022-08-21T13:24:44.401Z,7.43
2022-08-21T13:26:54.328Z,7.13
2022-08-21T13:29:13.335Z,7.38
2022-08-21T13:31:26.206Z,7.53
2022-08-21T13:33:37.784Z,7.00
2022-08-21T13:35:53.678Z,8.00
2022-08-21T13:38:01.830Z,7.18
2022-08-21T13:40:14.574Z,8.35
2022-08-21T13:42:26.176Z,8.63
2022-08-21T13:46:44.180Z,8.52
2022-08-21T13:48:52.788Z,9.20
2022-08-21T13:51:00.952Z,9.63
2022-08-21T13:53:10.026Z,9.38
2022-08-21T13:55:20.321Z,9.32
2022-08-21T13:57:33.095Z,7.88
2022-08-21T13:59:41.456Z,7.45
2022-08-21T14:02:00.974Z,7.07
2022-08-21T14:04:11.376Z,6.05
2022-08-21T14:06:21.637Z,5.90
2022-08-21T14:08:37.512Z,6.72
2022-08-21T14:10:48.445Z,5.22
2022-08-21T14:13:05.705Z,5.60
2022-08-21T14:17:33.830Z,5.18
2022-08-21T14:19:43.840Z,5.07
2022-08-21T14:21:51.528Z,4.80
2022-08-21T14:24:12.512Z,5.07
2022-08-21T14:26:23.247Z,4.88
2022-08-21T14:28:35.675Z,4.68
2022-08-21T14:30:45.871Z,5.35
2022-08-21T14:32:54.337Z,5.05
2022-08-21T14:35:02.655Z,4.90
2022-08-21T14:37:10.287Z,4.80
2022-08-21T14:39:18.485Z,4.72
2022-08-21T14:41:28.290Z,4.88
2022-08-21T14:43:38.075Z,5.28
2022-08-21T14:45:46.241Z,4.53
2022-08-21T14:47:54.134Z,4.85
2022-08-21T14:50:01.936Z,4.97
2022-08-21T14:52:09.880Z,4.72
2022-08-21T14:54:17.510Z,4.90
2022-08-21T14:56:25.458Z,4.80
2022-08-21T14:58:33.685Z,4.78
2022-08-21T15:00:43.119Z,5.18
2022-08-21T15:02:51.425Z,4.90
2022-08-21T15:04:58.754Z,5.40
2022-08-21T15:07:07.023Z,5.53
2022-08-21T15:09:14.597Z,5.05
2022-08-21T15:11:42.218Z,5.38
2022-08-21T15:13:50.934Z,4.55
2022-08-21T15:16:01.192Z,4.85
2022-08-21T15:18:08.928Z,4.57
2022-08-21T15:20:17.072Z,4.28
2022-08-21T15:22:27.793Z,4.50
2022-08-21T15:24:36.618Z,4.68
2022-08-21T15:26:44.384Z,5.35
2022-08-21T15:28:51.683Z,4.55
2022-08-21T15:31:01.090Z,4.20
2022-08-21T15:33:09.224Z,3.88
2022-08-21T15:35:19.233Z,4.40
2022-08-21T15:37:27.959Z,4.57
2022-08-21T15:39:37.355Z,4.10
2022-08-21T15:41:46.922Z,4.15
2022-08-21T15:43:57.007Z,4.50
2022-08-21T15:46:08.035Z,3.88
2022-08-21T15:48:15.846Z,3.95
2022-08-21T15:50:24.258Z,4.30
2022-08-21T15:52:31.740Z,4.20
2022-08-21T15:54:39.202Z,3.92
2022-08-21T15:56:50.235Z,4.18
2022-08-21T15:59:02.791Z,4.07
2022-08-21T16:01:11.771Z,4.57
2022-08-21T16:03:23.801Z,4.57
2022-08-21T16:05:31.139Z,3.90
2022-08-21T16:07:38.373Z,4.07
2022-08-21T16:09:45.458Z,4.07
2022-08-21T16:11:52.796Z,4.30
2022-08-21T16:14:00.297Z,4.25
2022-08-21T16:16:08.324Z,4.13
2022-08-21T16:18:17.246Z,3.72
2022-08-21T16:20:27.614Z,3.97
2022-08-21T16:22:44.038Z,3.65
2022-08-21T16:24:52.565Z,4.03
2022-08-21T16:27:00.567Z,4.38
2022-08-21T16:29:11.742Z,3.63
2022-08-21T16:31:19.814Z,3.47
2022-08-21T16:33:34.461Z,3.40
2022-08-21T16:35:44.048Z,3.20
2022-08-21T16:37:53.288Z,3.17
2022-08-21T16:40:00.990Z,3.42
2022-08-21T16:42:08.251Z,2.88
2022-08-21T16:44:15.532Z,3.25
2022-08-21T16:46:25.782Z,2.60
2022-08-21T16:48:34.553Z,2.50
2022-08-21T16:50:42.566Z,2.40
2022-08-21T16:52:50.269Z,2.60
2022-08-21T16:54:58.834Z,2.70
2022-08-21T16:57:06.628Z,2.85
2022-08-21T16:59:17.419Z,2.83
2022-08-21T17:01:28.970Z,2.85
2022-08-21T17:03:42.238Z,2.65
2022-08-21T17:05:49.801Z,2.80
2022-08-21T17:07:57.436Z,2.67
2022-08-21T17:10:05.073Z,3.17
2022-08-21T17:12:13.016Z,2.70
2022-08-21T17:14:22.402Z,2.72
2022-08-21T17:16:29.635Z,2.83
2022-08-21T17:18:38.594Z,2.80
2022-08-21T17:20:46.134Z,2.70
2022-08-21T17:22:53.470Z,1.90
2022-08-21T17:25:00.806Z,1.92
2022-08-21T17:27:10.351Z,2.10
2022-08-21T17:29:18.393Z,2.85
2022-08-21T17:31:25.574Z,2.60
2022-08-21T17:33:45.559Z,2.47
2022-08-21T17:35:52.894Z,3.05
2022-08-21T17:37:59.982Z,3.22
2022-08-21T17:40:08.457Z,2.63
2022-08-21T17:42:16.855Z,2.72
2022-08-21T17:44:24.954Z,3.10
2022-08-21T17:46:32.657Z,3.20
2022-08-21T17:48:41.569Z,3.20
2022-08-21T17:50:54.326Z,3.30
2022-08-21T17:53:01.924Z,3.80
2022-08-21T17:55:09.726Z,3.92
2022-08-21T17:57:23.012Z,4.00
2022-08-21T17:59:30.377Z,4.75
2022-08-21T18:01:40.527Z,4.85
2022-08-21T18:03:49.758Z,5.00
2022-08-21T18:05:58.220Z,4.65
2022-08-21T18:08:05.602Z,4.20
2022-08-21T18:10:16.009Z,5.22
2022-08-21T18:12:23.244Z,6.18
2022-08-21T18:14:32.485Z,5.85
2022-08-21T18:16:40.319Z,6.45
2022-08-21T18:18:52.620Z,5.57
2022-08-21T18:21:00.211Z,6.10
2022-08-21T18:23:07.605Z,5.90
2022-08-21T18:25:15.200Z,5.32
2022-08-21T18:27:29.063Z,5.70
2022-08-21T18:29:46.570Z,5.10
2022-08-21T18:31:54.969Z,4.70
2022-08-21T18:34:05.934Z,4.60
2022-08-21T18:36:13.318Z,5.00
2022-08-21T18:38:22.405Z,4.70
2022-08-21T18:40:29.783Z,4.80
2022-08-21T18:42:40.558Z,5.18
2022-08-21T18:46:58.291Z,5.00
2022-08-21T18:49:10.187Z,5.38
2022-08-21T18:51:17.529Z,4.97
2022-08-21T18:53:27.836Z,4.68
2022-08-21T18:55:37.311Z,5.18
2022-08-21T18:57:49.770Z,5.47
2022-08-21T18:59:57.045Z,5.20
2022-08-21T19:02:09.153Z,5.18
2022-08-21T19:04:42.974Z,4.57
2022-08-21T19:06:46.332Z,4.57
2022-08-21T19:08:53.782Z,4.20
2022-08-21T19:11:04.530Z,4.28
2022-08-21T19:13:14.402Z,4.13
2022-08-21T19:15:24.438Z,4.60
2022-08-21T19:17:32.854Z,4.37
2022-08-21T19:19:41.877Z,4.28
2022-08-21T19:21:49.331Z,4.18
2022-08-21T19:23:57.836Z,4.40
2022-08-21T19:26:07.414Z,3.72
2022-08-21T19:28:18.281Z,4.05
2022-08-21T19:30:26.434Z,4.13
2022-08-21T19:32:34.848Z,3.90
2022-08-21T19:34:45.866Z,3.80
2022-08-21T19:36:52.954Z,4.50
2022-08-21T19:39:00.336Z,4.28
2022-08-21T19:41:09.462Z,3.90
2022-08-21T19:43:16.641Z,3.85
2022-08-21T19:45:30.738Z,3.53
2022-08-21T19:47:41.501Z,3.63
2022-08-21T19:49:58.017Z,3.67
2022-08-21T19:52:13.202Z,3.17
2022-08-21T19:54:23.375Z,3.42
2022-08-21T19:56:32.959Z,3.00
2022-08-21T19:58:44.595Z,3.33
2022-08-21T20:00:53.258Z,2.80
2022-08-21T20:03:00.845Z,3.13
2022-08-21T20:05:10.953Z,3.72
2022-08-21T20:07:18.348Z,2.78
2022-08-21T20:09:34.129Z,2.90
2022-08-21T20:11:44.383Z,3.00
2022-08-21T20:13:52.073Z,2.90
2022-08-21T20:15:59.726Z,3.20
2022-08-21T20:18:07.152Z,2.67
2022-08-21T20:20:16.080Z,2.63
2022-08-21T20:24:50.404Z,2.30
2022-08-21T20:27:00.049Z,2.30
2022-08-21T20:29:08.616Z,2.35
2022-08-21T20:31:16.316Z,2.30
2022-08-21T20:33:27.067Z,1.98
2022-08-21T20:35:36.365Z,1.80
2022-08-21T20:37:43.631Z,1.70
2022-08-21T20:39:51.045Z,2.33
2022-08-21T20:41:58.609Z,2.08
2022-08-21T20:44:06.616Z,2.22
2022-08-21T20:46:13.649Z,1.90
2022-08-21T20:48:25.888Z,2.47
2022-08-21T20:50:38.809Z,2.17
2022-08-21T20:52:48.598Z,2.30
2022-08-21T20:54:58.656Z,2.05
2022-08-21T20:57:14.379Z,2.63
2022-08-21T20:59:42.501Z,2.50
2022-08-21T21:01:51.374Z,2.50
2022-08-21T21:04:10.040Z,2.35
2022-08-21T21:06:36.867Z,2.42
2022-08-21T21:08:48.966Z,2.25
2022-08-21T21:10:59.935Z,2.85
2022-08-21T21:13:13.834Z,3.25
2022-08-21T21:18:03.628Z,5.75
2022-08-21T21:20:15.825Z,4.90
2022-08-21T21:22:28.428Z,4.18
2022-08-21T21:24:40.942Z,3.70
2022-08-21T21:26:52.525Z,3.20
2022-08-21T21:29:10.456Z,2.97
2022-08-21T21:31:19.015Z,2.83
2022-08-21T21:33:25.996Z,3.28
2022-08-21T21:35:44.683Z,2.88
2022-08-21T21:38:02.368Z,3.45
2022-08-21T21:40:38.431Z,3.20
2022-08-21T21:42:54.378Z,2.80
2022-08-21T21:45:14.045Z,3.20
2022-08-21T21:47:26.964Z,3.00
2022-08-21T21:49:55.808Z,3.28
2022-08-21T21:52:13.223Z,3.50
2022-08-21T21:54:33.101Z,3.20
2022-08-21T21:56:56.560Z,4.93
2022-08-21T22:01:53.218Z,5.15
2022-08-21T22:04:04.903Z,5.53
2022-08-21T22:08:30.028Z,5.00
2022-08-21T22:10:46.310Z,6.00
2022-08-21T22:13:09.933Z,5.85
2022-08-21T22:15:26.412Z,6.30
2022-08-21T22:17:42.314Z,6.35
2022-08-21T22:19:51.346Z,5.22
2022-08-21T22:22:05.229Z,5.28
2022-08-21T22:24:19.586Z,5.22
2022-08-21T22:26:36.999Z,5.53
2022-08-21T22:28:47.406Z,5.40
2022-08-21T22:30:57.561Z,5.40
2022-08-21T22:33:04.895Z,5.70
2022-08-21T22:35:22.733Z,6.00
2022-08-21T22:37:38.454Z,5.57
2022-08-21T22:39:48.910Z,5.88
2022-08-21T22:41:58.556Z,5.68
2022-08-21T22:44:07.736Z,5.70
2022-08-21T22:46:27.561Z,5.72
2022-08-21T22:48:37.211Z,5.88
2022-08-21T22:50:45.519Z,6.03
2022-08-21T22:52:55.887Z,6.03
2022-08-21T22:55:18.522Z,7.60
2022-08-21T22:57:36.443Z,7.15
2022-08-21T22:59:57.277Z,7.60
2022-08-21T23:02:12.446Z,7.65
2022-08-21T23:04:25.134Z,8.95
2022-08-21T23:06:36.512Z,8.85
2022-08-21T23:08:45.529Z,8.15
2022-08-21T23:11:02.961Z,8.50
2022-08-21T23:13:19.129Z,7.88
2022-08-21T23:15:26.886Z,7.75
2022-08-21T23:17:45.532Z,8.30
2022-08-21T23:20:03.471Z,8.05
2022-08-21T23:22:28.301Z,7.97
2022-08-21T23:24:53.213Z,7.97
2022-08-21T23:27:07.817Z,8.98
2022-08-21T23:29:25.606Z,9.38
2022-08-21T23:31:39.078Z,9.80
2022-08-21T23:34:06.328Z,10.57
2022-08-21T23:36:41.775Z,11.05
2022-08-21T23:38:58.480Z,10.27
2022-08-21T23:41:16.620Z,10.10
2022-08-21T23:43:46.739Z,10.18
2022-08-21T23:46:15.391Z,9.05
2022-08-21T23:48:34.382Z,8.63
2022-08-21T23:50:50.378Z,7.32
2022-08-21T23:53:21.564Z,6.70
2022-08-21T23:55:46.305Z,6.95
2022-08-21T23:58:07.413Z,6.70
